ACA665 CYHZ-CYUL
Flight info
| Callsign | ACA665 |
|---|---|
| Flight time | 1h 18m |
| Altitude | 36000 |
| Route | KELNO Q806 MLT DCT KEBIG ROCKT3 |
| Aircraft | B38M/M-SDE1FGHILORVWXY/HB1 |
Departure
| Time | 2026-05-05 14:00 |
|---|---|
| Airport | Halifax / Stanfield International Airport (CYHZ) |
Arrival
| Time | 2026-05-05 15:18 |
|---|---|
| Airport | Montreal / Pierre Elliott Trudeau International Airport (CYUL) |
| Time | Latitude | Longitude | Altitude | Speed | Heading |
|---|---|---|---|---|---|
| 2026-05-05 13:38 | 44.88805 | -63.51428 | 454 ft | 0 kts | 260° |
| 2026-05-05 13:50 | 44.88806 | -63.51420 | 454 ft | 2 kts | 259° |
| 2026-05-05 13:50 | 44.88809 | -63.51398 | 454 ft | 2 kts | 259° |
| 2026-05-05 13:51 | 44.88812 | -63.51375 | 454 ft | 2 kts | 259° |
| 2026-05-05 13:51 | 44.88815 | -63.51352 | 454 ft | 2 kts | 258° |
| 2026-05-05 13:51 | 44.88819 | -63.51330 | 454 ft | 2 kts | 255° |
| 2026-05-05 13:51 | 44.88824 | -63.51308 | 454 ft | 2 kts | 240° |
| 2026-05-05 13:52 | 44.88837 | -63.51296 | 454 ft | 2 kts | 173° |
| 2026-05-05 13:52 | 44.88853 | -63.51300 | 454 ft | 2 kts | 171° |
| 2026-05-05 13:52 | 44.88865 | -63.51302 | 454 ft | 1 kts | 170° |
| 2026-05-05 13:52 | 44.88867 | -63.51303 | 454 ft | 0 kts | 170° |
| 2026-05-05 13:55 | 44.88864 | -63.51302 | 454 ft | 2 kts | 170° |
| 2026-05-05 13:55 | 44.88812 | -63.51290 | 454 ft | 15 kts | 170° |
| 2026-05-05 13:55 | 44.88702 | -63.51259 | 454 ft | 18 kts | 154° |
| 2026-05-05 13:55 | 44.88688 | -63.51214 | 454 ft | 6 kts | 80° |
| 2026-05-05 13:56 | 44.88703 | -63.51103 | 454 ft | 17 kts | 80° |
| 2026-05-05 13:56 | 44.88736 | -63.50925 | 454 ft | 20 kts | 55° |
| 2026-05-05 13:56 | 44.88851 | -63.50801 | 453 ft | 23 kts | 35° |
| 2026-05-05 13:56 | 44.88956 | -63.50693 | 453 ft | 13 kts | 34° |
| 2026-05-05 13:57 | 44.89004 | -63.50609 | 453 ft | 0 kts | 95° |
| 2026-05-05 13:57 | 44.89004 | -63.50608 | 453 ft | 0 kts | 95° |
| 2026-05-05 13:58 | 44.89003 | -63.50603 | 453 ft | 3 kts | 103° |
| 2026-05-05 13:58 | 44.88967 | -63.50512 | 453 ft | 17 kts | 124° |
| 2026-05-05 13:58 | 44.88873 | -63.50446 | 453 ft | 12 kts | 214° |
| 2026-05-05 13:58 | 44.88848 | -63.50471 | 453 ft | 3 kts | 215° |
| 2026-05-05 13:59 | 44.88199 | -63.51115 | 452 ft | 139 kts | 215° |
| 2026-05-05 13:59 | 44.87361 | -63.51961 | 637 ft | 189 kts | 215° |
| 2026-05-05 14:00 | 44.85234 | -63.54108 | 3179 ft | 179 kts | 222° |
| 2026-05-05 14:00 | 44.84588 | -63.54822 | 3885 ft | 179 kts | 226° |
| 2026-05-05 14:00 | 44.83871 | -63.56752 | 4884 ft | 191 kts | 260° |
| 2026-05-05 14:00 | 44.83967 | -63.58747 | 5031 ft | 215 kts | 282° |
| 2026-05-05 14:01 | 44.84667 | -63.60650 | 5096 ft | 224 kts | 298° |
| 2026-05-05 14:01 | 44.85566 | -63.62450 | 5064 ft | 229 kts | 299° |
| 2026-05-05 14:01 | 44.86518 | -63.64270 | 4793 ft | 234 kts | 301° |
| 2026-05-05 14:01 | 44.87516 | -63.66072 | 4886 ft | 238 kts | 302° |
| 2026-05-05 14:02 | 44.88584 | -63.67965 | 5808 ft | 247 kts | 302° |
| 2026-05-05 14:02 | 44.89609 | -63.69877 | 7106 ft | 245 kts | 302° |
| 2026-05-05 14:02 | 44.90542 | -63.71601 | 7980 ft | 254 kts | 302° |
| 2026-05-05 14:02 | 44.91616 | -63.73598 | 9092 ft | 257 kts | 302° |
| 2026-05-05 14:03 | 44.92707 | -63.75627 | 10192 ft | 260 kts | 301° |
| 2026-05-05 14:03 | 44.93739 | -63.77787 | 10961 ft | 273 kts | 299° |
| 2026-05-05 14:03 | 44.94808 | -63.80095 | 11509 ft | 294 kts | 300° |
| 2026-05-05 14:03 | 44.95977 | -63.82588 | 12013 ft | 314 kts | 300° |
| 2026-05-05 14:04 | 44.97220 | -63.85218 | 12645 ft | 328 kts | 301° |
| 2026-05-05 14:04 | 44.98507 | -63.87932 | 13515 ft | 333 kts | 301° |
| 2026-05-05 14:04 | 44.99639 | -63.90319 | 14315 ft | 336 kts | 301° |
| 2026-05-05 14:04 | 45.00951 | -63.93088 | 15115 ft | 341 kts | 301° |
| 2026-05-05 14:05 | 45.02285 | -63.95905 | 15969 ft | 345 kts | 301° |
| 2026-05-05 14:05 | 45.03631 | -63.98747 | 16788 ft | 350 kts | 301° |
| 2026-05-05 14:05 | 45.04989 | -64.01621 | 17603 ft | 354 kts | 301° |
| 2026-05-05 14:05 | 45.06367 | -64.04537 | 18365 ft | 358 kts | 301° |
| 2026-05-05 14:06 | 45.07742 | -64.07452 | 19043 ft | 361 kts | 301° |
| 2026-05-05 14:06 | 45.09145 | -64.10428 | 19760 ft | 364 kts | 301° |
| 2026-05-05 14:06 | 45.10551 | -64.13415 | 20446 ft | 367 kts | 301° |
| 2026-05-05 14:06 | 45.11973 | -64.16440 | 21143 ft | 370 kts | 300° |
| 2026-05-05 14:07 | 45.13057 | -64.19680 | 21798 ft | 369 kts | 284° |
| 2026-05-05 14:07 | 45.13544 | -64.23291 | 22443 ft | 372 kts | 279° |
| 2026-05-05 14:07 | 45.13954 | -64.26633 | 23018 ft | 375 kts | 279° |
| 2026-05-05 14:07 | 45.14395 | -64.30400 | 23658 ft | 378 kts | 278° |
| 2026-05-05 14:08 | 45.14812 | -64.34094 | 24183 ft | 381 kts | 278° |
| 2026-05-05 14:08 | 45.15223 | -64.37815 | 24723 ft | 384 kts | 279° |
| 2026-05-05 14:08 | 45.15632 | -64.41562 | 25242 ft | 386 kts | 279° |
| 2026-05-05 14:08 | 45.15904 | -64.44065 | 25583 ft | 388 kts | 279° |
| 2026-05-05 14:09 | 45.16315 | -64.47860 | 26094 ft | 391 kts | 279° |
| 2026-05-05 14:09 | 45.16727 | -64.51686 | 26574 ft | 394 kts | 279° |
| 2026-05-05 14:09 | 45.17140 | -64.55538 | 27077 ft | 396 kts | 279° |
| 2026-05-05 14:09 | 45.17507 | -64.58962 | 27509 ft | 398 kts | 279° |
| 2026-05-05 14:10 | 45.17914 | -64.62773 | 27967 ft | 401 kts | 279° |
| 2026-05-05 14:10 | 45.18332 | -64.66705 | 28434 ft | 404 kts | 279° |
| 2026-05-05 14:10 | 45.18745 | -64.70605 | 28887 ft | 407 kts | 279° |
| 2026-05-05 14:10 | 45.19165 | -64.74577 | 29339 ft | 409 kts | 280° |
| 2026-05-05 14:11 | 45.19588 | -64.78599 | 29767 ft | 412 kts | 280° |
| 2026-05-05 14:11 | 45.20012 | -64.82634 | 30160 ft | 415 kts | 280° |
| 2026-05-05 14:11 | 45.20435 | -64.86686 | 30524 ft | 417 kts | 280° |
| 2026-05-05 14:11 | 45.20858 | -64.90744 | 30979 ft | 416 kts | 280° |
| 2026-05-05 14:12 | 45.21280 | -64.94807 | 31489 ft | 414 kts | 280° |
| 2026-05-05 14:12 | 45.21692 | -64.98791 | 31993 ft | 412 kts | 280° |
| 2026-05-05 14:12 | 45.22106 | -65.02807 | 32497 ft | 410 kts | 280° |
| 2026-05-05 14:12 | 45.22517 | -65.06806 | 33020 ft | 409 kts | 280° |
| 2026-05-05 14:13 | 45.22924 | -65.10786 | 33517 ft | 407 kts | 280° |
| 2026-05-05 14:13 | 45.23329 | -65.14756 | 34002 ft | 405 kts | 280° |
| 2026-05-05 14:13 | 45.23731 | -65.18717 | 34358 ft | 406 kts | 280° |
| 2026-05-05 14:13 | 45.24133 | -65.22692 | 34693 ft | 407 kts | 279° |
| 2026-05-05 14:14 | 45.24535 | -65.26669 | 35051 ft | 408 kts | 279° |
| 2026-05-05 14:14 | 45.24936 | -65.30662 | 35399 ft | 409 kts | 279° |
| 2026-05-05 14:14 | 45.25332 | -65.34616 | 35733 ft | 409 kts | 279° |
| 2026-05-05 14:14 | 45.25733 | -65.38631 | 35932 ft | 412 kts | 279° |
| 2026-05-05 14:15 | 45.26532 | -65.46676 | 35947 ft | 409 kts | 279° |
| 2026-05-05 14:15 | 45.27322 | -65.54686 | 35944 ft | 409 kts | 279° |
| 2026-05-05 14:16 | 45.28105 | -65.62692 | 35936 ft | 409 kts | 279° |
| 2026-05-05 14:16 | 45.28837 | -65.70228 | 35938 ft | 409 kts | 279° |
| 2026-05-05 14:17 | 45.29610 | -65.78244 | 35933 ft | 409 kts | 279° |
| 2026-05-05 14:17 | 45.30377 | -65.86261 | 35936 ft | 409 kts | 278° |
| 2026-05-05 14:18 | 45.31134 | -65.94237 | 35933 ft | 409 kts | 278° |
| 2026-05-05 14:18 | 45.31891 | -66.02268 | 35937 ft | 409 kts | 278° |
| 2026-05-05 14:19 | 45.32642 | -66.10295 | 35931 ft | 410 kts | 278° |
| 2026-05-05 14:19 | 45.33388 | -66.18334 | 35927 ft | 409 kts | 278° |
| 2026-05-05 14:20 | 45.34122 | -66.26309 | 35925 ft | 409 kts | 278° |
| 2026-05-05 14:20 | 45.34815 | -66.33884 | 35911 ft | 409 kts | 278° |
| 2026-05-05 14:21 | 45.35539 | -66.41875 | 35910 ft | 409 kts | 278° |
| 2026-05-05 14:21 | 45.36266 | -66.49937 | 35901 ft | 409 kts | 278° |
| 2026-05-05 14:22 | 45.36982 | -66.57930 | 35898 ft | 408 kts | 278° |
| 2026-05-05 14:22 | 45.37731 | -66.65929 | 35885 ft | 408 kts | 280° |
| 2026-05-05 14:23 | 45.38695 | -66.73881 | 35886 ft | 408 kts | 280° |
| 2026-05-05 14:23 | 45.39628 | -66.81793 | 35874 ft | 408 kts | 280° |
| 2026-05-05 14:24 | 45.40562 | -66.89773 | 35877 ft | 409 kts | 279° |
| 2026-05-05 14:24 | 45.41439 | -66.97319 | 35866 ft | 408 kts | 279° |
| 2026-05-05 14:25 | 45.42360 | -67.05291 | 35871 ft | 408 kts | 279° |
| 2026-05-05 14:25 | 45.43277 | -67.13282 | 35864 ft | 408 kts | 279° |
| 2026-05-05 14:26 | 45.44183 | -67.21226 | 35862 ft | 408 kts | 279° |
| 2026-05-05 14:26 | 45.45089 | -67.29224 | 35859 ft | 408 kts | 279° |
| 2026-05-05 14:27 | 45.45981 | -67.37148 | 35842 ft | 407 kts | 279° |
| 2026-05-05 14:27 | 45.46873 | -67.45114 | 35838 ft | 407 kts | 279° |
| 2026-05-05 14:28 | 45.47770 | -67.53087 | 35837 ft | 407 kts | 279° |
| 2026-05-05 14:28 | 45.48661 | -67.61013 | 35840 ft | 407 kts | 279° |
| 2026-05-05 14:29 | 45.49574 | -67.68981 | 35831 ft | 407 kts | 278° |
| 2026-05-05 14:29 | 45.50477 | -67.76930 | 35843 ft | 406 kts | 278° |
| 2026-05-05 14:30 | 45.51370 | -67.84843 | 35833 ft | 406 kts | 278° |
| 2026-05-05 14:30 | 45.52210 | -67.92342 | 35828 ft | 406 kts | 278° |
| 2026-05-05 14:31 | 45.53098 | -68.00303 | 35829 ft | 406 kts | 278° |
| 2026-05-05 14:31 | 45.53973 | -68.08206 | 35821 ft | 406 kts | 278° |
| 2026-05-05 14:32 | 45.54849 | -68.16164 | 35820 ft | 405 kts | 278° |
| 2026-05-05 14:32 | 45.55669 | -68.23665 | 35822 ft | 405 kts | 278° |
| 2026-05-05 14:33 | 45.56526 | -68.31564 | 35811 ft | 405 kts | 278° |
| 2026-05-05 14:33 | 45.57384 | -68.39517 | 35816 ft | 405 kts | 278° |
| 2026-05-05 14:34 | 45.58237 | -68.47470 | 35818 ft | 404 kts | 277° |
| 2026-05-05 14:34 | 45.59456 | -68.55241 | 35812 ft | 404 kts | 283° |
| 2026-05-05 14:35 | 45.60918 | -68.63007 | 35803 ft | 405 kts | 283° |
| 2026-05-05 14:35 | 45.62340 | -68.70791 | 35802 ft | 404 kts | 283° |
| 2026-05-05 14:36 | 45.63749 | -68.78571 | 35805 ft | 404 kts | 282° |
| 2026-05-05 14:36 | 45.65150 | -68.86346 | 35805 ft | 404 kts | 282° |
| 2026-05-05 14:37 | 45.66540 | -68.94087 | 35803 ft | 403 kts | 282° |
| 2026-05-05 14:37 | 45.67931 | -69.01869 | 35798 ft | 404 kts | 282° |
| 2026-05-05 14:38 | 45.69320 | -69.09676 | 35785 ft | 404 kts | 282° |
| 2026-05-05 14:38 | 45.70690 | -69.17412 | 35776 ft | 403 kts | 282° |
| 2026-05-05 14:39 | 45.72064 | -69.25202 | 35771 ft | 402 kts | 282° |
| 2026-05-05 14:39 | 45.73348 | -69.32508 | 35771 ft | 401 kts | 282° |
| 2026-05-05 14:40 | 45.74698 | -69.40225 | 35757 ft | 401 kts | 282° |
| 2026-05-05 14:40 | 45.76051 | -69.47994 | 35764 ft | 401 kts | 282° |
| 2026-05-05 14:41 | 45.77398 | -69.55762 | 35759 ft | 401 kts | 281° |
| 2026-05-05 14:41 | 45.78730 | -69.63475 | 35741 ft | 401 kts | 281° |
| 2026-05-05 14:42 | 45.80067 | -69.71251 | 35739 ft | 401 kts | 281° |
| 2026-05-05 14:42 | 45.81399 | -69.79035 | 35741 ft | 402 kts | 281° |
| 2026-05-05 14:43 | 45.82717 | -69.86773 | 35742 ft | 401 kts | 281° |
| 2026-05-05 14:43 | 45.83952 | -69.94053 | 35747 ft | 401 kts | 281° |
| 2026-05-05 14:44 | 45.85274 | -70.01876 | 35741 ft | 399 kts | 281° |
| 2026-05-05 14:44 | 45.86569 | -70.09580 | 35726 ft | 399 kts | 281° |
| 2026-05-05 14:45 | 45.87862 | -70.17300 | 35721 ft | 399 kts | 281° |
| 2026-05-05 14:45 | 45.88937 | -70.23747 | 35725 ft | 399 kts | 281° |
| 2026-05-05 14:46 | 45.90372 | -70.32399 | 35735 ft | 399 kts | 280° |
| 2026-05-05 14:46 | 45.91655 | -70.40164 | 35720 ft | 400 kts | 280° |
| 2026-05-05 14:47 | 45.92911 | -70.47803 | 35718 ft | 400 kts | 280° |
| 2026-05-05 14:47 | 45.94185 | -70.55579 | 35710 ft | 400 kts | 280° |
| 2026-05-05 14:48 | 45.95456 | -70.63379 | 35713 ft | 400 kts | 280° |
| 2026-05-05 14:48 | 45.96711 | -70.71105 | 35724 ft | 399 kts | 279° |
| 2026-05-05 14:49 | 45.97899 | -70.78449 | 35703 ft | 399 kts | 279° |
| 2026-05-05 14:49 | 45.99005 | -70.86259 | 35686 ft | 395 kts | 269° |
| 2026-05-05 14:50 | 45.98887 | -70.94091 | 35699 ft | 394 kts | 267° |
| 2026-05-05 14:50 | 45.98749 | -71.01992 | 35710 ft | 395 kts | 266° |
| 2026-05-05 14:51 | 45.98584 | -71.09851 | 35723 ft | 395 kts | 266° |
| 2026-05-05 14:51 | 45.98498 | -71.13771 | 35149 ft | 391 kts | 266° |
| 2026-05-05 14:51 | 45.98412 | -71.17668 | 34521 ft | 389 kts | 266° |
| 2026-05-05 14:52 | 45.98324 | -71.21524 | 34081 ft | 382 kts | 266° |
| 2026-05-05 14:52 | 45.98237 | -71.25292 | 33629 ft | 375 kts | 266° |
| 2026-05-05 14:52 | 45.98150 | -71.29026 | 32937 ft | 371 kts | 266° |
| 2026-05-05 14:52 | 45.98062 | -71.32721 | 32105 ft | 379 kts | 266° |
| 2026-05-05 14:53 | 45.97980 | -71.36117 | 31317 ft | 384 kts | 266° |
| 2026-05-05 14:53 | 45.97886 | -71.39968 | 30477 ft | 388 kts | 265° |
| 2026-05-05 14:53 | 45.97790 | -71.43866 | 29601 ft | 392 kts | 265° |
| 2026-05-05 14:53 | 45.97693 | -71.47787 | 28575 ft | 391 kts | 265° |
| 2026-05-05 14:54 | 45.97595 | -71.51736 | 27738 ft | 399 kts | 265° |
| 2026-05-05 14:54 | 45.97490 | -71.55756 | 27196 ft | 404 kts | 265° |
| 2026-05-05 14:54 | 45.97384 | -71.59806 | 26836 ft | 408 kts | 264° |
| 2026-05-05 14:54 | 45.97275 | -71.63914 | 26419 ft | 412 kts | 265° |
| 2026-05-05 14:55 | 45.97164 | -71.68052 | 25940 ft | 415 kts | 265° |
| 2026-05-05 14:55 | 45.97052 | -71.72154 | 25499 ft | 417 kts | 265° |
| 2026-05-05 14:55 | 45.96937 | -71.76319 | 25034 ft | 415 kts | 265° |
| 2026-05-05 14:55 | 45.96821 | -71.80465 | 24577 ft | 413 kts | 265° |
| 2026-05-05 14:56 | 45.96704 | -71.84591 | 24114 ft | 411 kts | 265° |
| 2026-05-05 14:56 | 45.96587 | -71.88684 | 23645 ft | 408 kts | 265° |
| 2026-05-05 14:56 | 45.96470 | -71.92714 | 23223 ft | 406 kts | 264° |
| 2026-05-05 14:56 | 45.96351 | -71.96747 | 22689 ft | 402 kts | 264° |
| 2026-05-05 14:57 | 45.96270 | -71.99464 | 22369 ft | 401 kts | 264° |
| 2026-05-05 14:57 | 45.96151 | -72.03453 | 21906 ft | 398 kts | 264° |
| 2026-05-05 14:57 | 45.96032 | -72.07374 | 21456 ft | 396 kts | 264° |
| 2026-05-05 14:57 | 45.95911 | -72.11320 | 21024 ft | 394 kts | 264° |
| 2026-05-05 14:58 | 45.95788 | -72.15258 | 20592 ft | 392 kts | 264° |
| 2026-05-05 14:58 | 45.95666 | -72.19169 | 20139 ft | 390 kts | 264° |
| 2026-05-05 14:58 | 45.95543 | -72.23055 | 19703 ft | 388 kts | 264° |
| 2026-05-05 14:58 | 45.95419 | -72.26918 | 19269 ft | 386 kts | 264° |
| 2026-05-05 14:59 | 45.95295 | -72.30753 | 18838 ft | 384 kts | 264° |
| 2026-05-05 14:59 | 45.95172 | -72.34531 | 18417 ft | 382 kts | 264° |
| 2026-05-05 14:59 | 45.95024 | -72.38323 | 17949 ft | 377 kts | 260° |
| 2026-05-05 14:59 | 45.94280 | -72.41883 | 17422 ft | 371 kts | 244° |
| 2026-05-05 15:00 | 45.93135 | -72.45198 | 16984 ft | 369 kts | 243° |
| 2026-05-05 15:00 | 45.92370 | -72.47358 | 16717 ft | 363 kts | 243° |
| 2026-05-05 15:00 | 45.90852 | -72.51553 | 16395 ft | 343 kts | 242° |
| 2026-05-05 15:00 | 45.89756 | -72.54533 | 16125 ft | 332 kts | 242° |
| 2026-05-05 15:01 | 45.88805 | -72.57102 | 15835 ft | 324 kts | 242° |
| 2026-05-05 15:01 | 45.87756 | -72.59921 | 15490 ft | 317 kts | 242° |
| 2026-05-05 15:01 | 45.86723 | -72.62689 | 15132 ft | 310 kts | 242° |
| 2026-05-05 15:01 | 45.85713 | -72.65392 | 14783 ft | 305 kts | 242° |
| 2026-05-05 15:02 | 45.84717 | -72.68053 | 14433 ft | 300 kts | 241° |
| 2026-05-05 15:02 | 45.83752 | -72.70628 | 14101 ft | 294 kts | 241° |
| 2026-05-05 15:02 | 45.82790 | -72.73195 | 13792 ft | 289 kts | 241° |
| 2026-05-05 15:02 | 45.81843 | -72.75718 | 13477 ft | 285 kts | 241° |
| 2026-05-05 15:03 | 45.80909 | -72.78200 | 13084 ft | 282 kts | 241° |
| 2026-05-05 15:03 | 45.79980 | -72.80669 | 12686 ft | 279 kts | 241° |
| 2026-05-05 15:03 | 45.79066 | -72.83095 | 12369 ft | 274 kts | 241° |
| 2026-05-05 15:03 | 45.78168 | -72.85474 | 12072 ft | 269 kts | 241° |
| 2026-05-05 15:04 | 45.77287 | -72.87808 | 11801 ft | 264 kts | 241° |
| 2026-05-05 15:04 | 45.76421 | -72.90100 | 11497 ft | 260 kts | 241° |
| 2026-05-05 15:04 | 45.75566 | -72.92361 | 11198 ft | 256 kts | 241° |
| 2026-05-05 15:04 | 45.74735 | -72.94556 | 10916 ft | 252 kts | 241° |
| 2026-05-05 15:05 | 45.73094 | -72.98886 | 10343 ft | 244 kts | 241° |
| 2026-05-05 15:05 | 45.72294 | -73.01008 | 10071 ft | 240 kts | 243° |
| 2026-05-05 15:05 | 45.71847 | -73.03290 | 9784 ft | 239 kts | 258° |
| 2026-05-05 15:06 | 45.71587 | -73.05624 | 9530 ft | 235 kts | 257° |
| 2026-05-05 15:06 | 45.71331 | -73.07916 | 9266 ft | 232 kts | 257° |
| 2026-05-05 15:06 | 45.71080 | -73.10203 | 9010 ft | 233 kts | 257° |
| 2026-05-05 15:06 | 45.70817 | -73.12458 | 8742 ft | 232 kts | 253° |
| 2026-05-05 15:07 | 45.70400 | -73.14689 | 8494 ft | 232 kts | 252° |
| 2026-05-05 15:07 | 45.69984 | -73.16920 | 8260 ft | 231 kts | 252° |
| 2026-05-05 15:07 | 45.69574 | -73.19144 | 8050 ft | 230 kts | 252° |
| 2026-05-05 15:07 | 45.69169 | -73.21362 | 7815 ft | 229 kts | 252° |
| 2026-05-05 15:08 | 45.68769 | -73.23560 | 7517 ft | 227 kts | 252° |
| 2026-05-05 15:08 | 45.68376 | -73.25731 | 7120 ft | 230 kts | 252° |
| 2026-05-05 15:08 | 45.67973 | -73.27957 | 6712 ft | 233 kts | 252° |
| 2026-05-05 15:08 | 45.67564 | -73.30215 | 6296 ft | 236 kts | 252° |
| 2026-05-05 15:09 | 45.67153 | -73.32490 | 5980 ft | 235 kts | 252° |
| 2026-05-05 15:09 | 45.66746 | -73.34737 | 5696 ft | 232 kts | 252° |
| 2026-05-05 15:09 | 45.66343 | -73.36955 | 5428 ft | 229 kts | 251° |
| 2026-05-05 15:09 | 45.65944 | -73.39152 | 5142 ft | 226 kts | 252° |
| 2026-05-05 15:10 | 45.65550 | -73.41319 | 4869 ft | 224 kts | 252° |
| 2026-05-05 15:10 | 45.65159 | -73.43464 | 4578 ft | 221 kts | 252° |
| 2026-05-05 15:10 | 45.64773 | -73.45580 | 4305 ft | 218 kts | 251° |
| 2026-05-05 15:10 | 45.64401 | -73.47616 | 4070 ft | 211 kts | 251° |
| 2026-05-05 15:11 | 45.64035 | -73.49618 | 3823 ft | 205 kts | 251° |
| 2026-05-05 15:11 | 45.63681 | -73.51561 | 3606 ft | 198 kts | 251° |
| 2026-05-05 15:11 | 45.63299 | -73.53410 | 3383 ft | 189 kts | 241° |
| 2026-05-05 15:11 | 45.62473 | -73.54799 | 3163 ft | 178 kts | 225° |
| 2026-05-05 15:12 | 45.61627 | -73.56008 | 3053 ft | 164 kts | 225° |
| 2026-05-05 15:12 | 45.60845 | -73.57086 | 3026 ft | 148 kts | 225° |
| 2026-05-05 15:12 | 45.60141 | -73.58031 | 3016 ft | 132 kts | 225° |
| 2026-05-05 15:12 | 45.59484 | -73.58906 | 2942 ft | 131 kts | 225° |
| 2026-05-05 15:13 | 45.58823 | -73.59783 | 2800 ft | 128 kts | 225° |
| 2026-05-05 15:13 | 45.58169 | -73.60647 | 2659 ft | 127 kts | 224° |
| 2026-05-05 15:13 | 45.57518 | -73.61506 | 2501 ft | 127 kts | 224° |
| 2026-05-05 15:13 | 45.56879 | -73.62349 | 2355 ft | 122 kts | 224° |
| 2026-05-05 15:14 | 45.56265 | -73.63156 | 2226 ft | 119 kts | 224° |
| 2026-05-05 15:14 | 45.55660 | -73.63953 | 2046 ft | 119 kts | 224° |
| 2026-05-05 15:14 | 45.55054 | -73.64753 | 1873 ft | 122 kts | 224° |
| 2026-05-05 15:14 | 45.54454 | -73.65544 | 1762 ft | 113 kts | 223° |
| 2026-05-05 15:15 | 45.53888 | -73.66285 | 1616 ft | 111 kts | 221° |
| 2026-05-05 15:15 | 45.53313 | -73.67065 | 1523 ft | 119 kts | 222° |
| 2026-05-05 15:15 | 45.52686 | -73.67881 | 1346 ft | 126 kts | 221° |
| 2026-05-05 15:15 | 45.52083 | -73.68677 | 1163 ft | 120 kts | 220° |
| 2026-05-05 15:16 | 45.51464 | -73.69450 | 939 ft | 113 kts | 226° |
| 2026-05-05 15:16 | 45.50847 | -73.70285 | 800 ft | 127 kts | 225° |
| 2026-05-05 15:16 | 45.50200 | -73.71157 | 641 ft | 129 kts | 223° |
| 2026-05-05 15:16 | 45.49523 | -73.72005 | 460 ft | 131 kts | 222° |
| 2026-05-05 15:17 | 45.48860 | -73.72886 | 281 ft | 130 kts | 223° |
| 2026-05-05 15:17 | 45.48211 | -73.73746 | 134 ft | 124 kts | 224° |
| 2026-05-05 15:17 | 45.47652 | -73.74481 | 117 ft | 85 kts | 222° |
| 2026-05-05 15:17 | 45.47274 | -73.74975 | 119 ft | 69 kts | 222° |
| 2026-05-05 15:18 | 45.46979 | -73.75362 | 117 ft | 51 kts | 223° |
| 2026-05-05 15:18 | 45.46781 | -73.75559 | 116 ft | 23 kts | 204° |
| 2026-05-05 15:18 | 45.46623 | -73.75622 | 118 ft | 25 kts | 194° |
| 2026-05-05 15:18 | 45.46449 | -73.75681 | 116 ft | 27 kts | 193° |
| 2026-05-05 15:19 | 45.46259 | -73.75724 | 117 ft | 29 kts | 184° |
| 2026-05-05 15:19 | 45.46115 | -73.75696 | 118 ft | 13 kts | 130° |
| 2026-05-05 15:19 | 45.46115 | -73.75625 | 117 ft | 7 kts | 65° |
| 2026-05-05 15:19 | 45.46135 | -73.75502 | 118 ft | 20 kts | 86° |
| 2026-05-05 15:20 | 45.46130 | -73.75338 | 117 ft | 11 kts | 129° |
| 2026-05-05 15:20 | 45.46067 | -73.75318 | 116 ft | 11 kts | 171° |
| 2026-05-05 15:20 | 45.46010 | -73.75241 | 115 ft | 13 kts | 114° |
| 2026-05-05 15:20 | 45.46005 | -73.75105 | 118 ft | 15 kts | 98° |
| 2026-05-05 15:21 | 45.45960 | -73.75043 | 115 ft | 6 kts | 176° |
| 2026-05-05 15:21 | 45.45932 | -73.75044 | 116 ft | 3 kts | 179° |
| 2026-05-05 15:21 | 45.45928 | -73.75044 | 116 ft | 0 kts | 179° |